Time;durP1;ratioP1;P1;durP2;ratioP2;P2;SDS_P1;SDS_P2;PMS_P1;PMS_P2;Temp;Humidity;BMP_temperature;BMP_pressure;BME280_temperature;BME280_humidity;BME280_pressure;Samples;Min_cycle;Max_cycle;Signal;HPM_P1;HPM_P2
2022/01/03 00:00:13;;;;;;;9.57;2.20;;;;;;;9.90;78.57;99903.75;5067206;28;20043;-85
2022/01/03 00:02:41;;;;;;;7.78;2.10;;;;;;;9.95;78.55;99888.31;5087987;28;20506;-85
2022/01/03 00:05:09;;;;;;;15.05;2.95;;;;;;;10.04;78.00;99896.44;5030905;28;20056;-85
2022/01/03 00:07:41;;;;;;;6.93;1.90;;;;;;;9.99;77.75;99878.25;5033068;28;20063;-85
2022/01/03 00:10:12;;;;;;;10.77;2.65;;;;;;;9.96;78.05;99889.97;5043458;28;20045;-85
2022/01/03 00:12:39;;;;;;;4.95;1.77;;;;;;;10.02;78.05;99887.75;5029218;28;20049;-85
2022/01/03 00:15:10;;;;;;;8.73;2.00;;;;;;;10.04;77.90;99870.75;5046783;28;20052;-85
2022/01/03 00:17:37;;;;;;;8.63;2.10;;;;;;;10.00;78.33;99880.78;5043467;28;20415;-85
2022/01/03 00:20:05;;;;;;;8.57;2.13;;;;;;;10.00;78.28;99898.53;5046229;28;20051;-85
2022/01/03 00:22:36;;;;;;;7.78;1.92;;;;;;;9.99;78.11;99886.22;5046552;28;20396;-85
2022/01/03 00:25:06;;;;;;;10.63;2.20;;;;;;;10.02;77.94;99903.69;5067674;28;20053;-85
2022/01/03 00:28:11;;;;;;;13.80;2.70;;;;;;;9.87;77.97;99895.22;5050526;28;20103;-85
2022/01/03 00:30:38;;;;;;;10.45;2.00;;;;;;;10.01;78.51;99889.59;5011612;28;20446;-85
2022/01/03 00:33:06;;;;;;;9.82;1.80;;;;;;;10.05;78.05;99879.53;5056640;28;20496;-85
2022/01/03 00:35:36;;;;;;;11.05;2.28;;;;;;;10.06;77.84;99878.59;5049754;28;20466;-85
2022/01/03 00:38:03;;;;;;;9.90;2.05;;;;;;;10.09;77.95;99878.31;5046357;28;20127;-85
2022/01/03 00:40:32;;;;;;;12.10;2.83;;;;;;;10.05;78.35;99885.72;5064071;28;20041;-85
2022/01/03 00:42:59;;;;;;;6.85;2.38;;;;;;;10.10;77.89;99872.03;5061324;28;20048;-85
2022/01/03 00:45:26;;;;;;;10.82;2.58;;;;;;;10.08;78.14;99860.72;5065046;28;20415;-85
2022/01/03 00:47:53;;;;;;;12.23;2.15;;;;;;;10.11;77.85;99871.06;5058886;28;20048;-85
2022/01/03 00:50:22;;;;;;;8.32;1.90;;;;;;;10.17;77.47;99865.22;5044121;28;20048;-85
2022/01/03 00:52:51;;;;;;;10.18;2.60;;;;;;;10.15;77.09;99862.72;5046633;28;20040;-85
2022/01/03 00:55:18;;;;;;;11.68;2.08;;;;;;;10.12;77.38;99862.13;5065699;28;20493;-85
2022/01/03 00:57:54;;;;;;;10.32;1.77;;;;;;;10.11;77.15;99857.81;5043823;28;20052;-85
2022/01/03 01:00:21;;;;;;;16.27;2.25;;;;;;;10.20;76.93;99860.50;5062712;28;20048;-84
2022/01/03 01:03:05;;;;;;;11.23;1.70;;;;;;;10.09;77.07;99862.41;5063495;28;20049;-85
2022/01/03 01:05:33;;;;;;;8.25;2.00;;;;;;;10.15;77.05;99862.72;5045395;28;20115;-85
2022/01/03 01:08:05;;;;;;;8.02;1.80;;;;;;;10.14;76.90;99862.84;5077132;28;20036;-85
2022/01/03 01:10:35;;;;;;;13.18;2.40;;;;;;;10.18;76.81;99853.66;5062503;28;20044;-85
2022/01/03 01:13:03;;;;;;;11.45;1.85;;;;;;;10.19;76.83;99844.72;5062800;28;20767;-84
2022/01/03 01:15:36;;;;;;;10.18;2.40;;;;;;;10.29;76.14;99876.63;5078237;28;20102;-85
2022/01/03 01:18:04;;;;;;;16.20;2.70;;;;;;;10.21;76.52;99859.53;5066459;28;20091;-85
2022/01/03 01:20:35;;;;;;;14.13;2.22;;;;;;;10.27;76.04;99894.47;5038153;28;20105;-85
2022/01/03 01:23:04;;;;;;;9.48;2.17;;;;;;;10.18;76.80;99893.47;5050708;28;20127;-85
2022/01/03 01:28:10;;;;;;;15.88;2.30;;;;;;;10.28;76.06;99886.41;5048912;28;20082;-86
2022/01/03 01:30:37;;;;;;;12.80;1.90;;;;;;;10.24;76.71;99895.56;5053416;28;20055;-85
2022/01/03 01:33:13;;;;;;;14.63;2.25;;;;;;;10.22;76.33;99886.91;5045546;28;20131;-85
2022/01/03 01:35:47;;;;;;;8.02;2.40;;;;;;;10.25;76.40;99883.97;5033637;28;20508;-85
2022/01/03 01:38:18;;;;;;;10.25;1.75;;;;;;;10.25;76.26;99886.63;5048115;28;20118;-85
2022/01/03 01:40:48;;;;;;;21.77;2.28;;;;;;;10.30;75.75;99876.47;5055708;28;20048;-85
2022/01/03 01:43:39;;;;;;;8.27;2.08;;;;;;;10.29;75.93;99884.59;5042014;28;20041;-85
2022/01/03 01:46:12;;;;;;;6.03;1.50;;;;;;;10.22;76.03;99886.91;4996778;28;20067;-85
2022/01/03 01:48:41;;;;;;;15.30;1.95;;;;;;;10.26;76.43;99911.38;5037678;28;20040;-84
2022/01/03 01:51:11;;;;;;;13.30;2.15;;;;;;;10.33;75.91;99979.75;5055830;28;20049;-85
2022/01/03 01:53:43;;;;;;;13.80;2.45;;;;;;;10.39;75.61;100066.00;5041517;28;20044;-85
2022/01/03 01:56:40;;;;;;;13.02;1.48;;;;;;;10.35;74.38;100064.53;5064643;28;20052;-85
2022/01/03 01:59:19;;;;;;;8.30;1.20;;;;;;;10.13;74.17;100023.03;5022663;28;20048;-85
2022/01/03 02:02:11;;;;;;;3.60;0.85;;;;;;;9.97;74.60;100042.88;4996279;28;20611;-85
2022/01/03 02:04:46;;;;;;;6.80;1.10;;;;;;;9.89;75.10;100058.56;5048180;28;20048;-85
2022/01/03 02:08:01;;;;;;;4.93;0.60;;;;;;;9.68;76.17;100047.91;5054502;28;20045;-85
2022/01/03 02:14:37;;;;;;;6.03;0.80;;;;;;;9.72;76.75;100070.56;5036882;28;20452;-85
2022/01/03 02:17:09;;;;;;;4.43;0.70;;;;;;;9.68;77.10;100081.53;5032594;28;20102;-85
2022/01/03 02:19:38;;;;;;;4.13;0.75;;;;;;;9.69;77.07;100065.50;5052673;28;20047;-85
2022/01/03 02:22:10;;;;;;;6.65;0.85;;;;;;;9.80;76.23;100039.94;5049927;28;20041;-85
2022/01/03 02:24:46;;;;;;;3.38;0.63;;;;;;;9.64;77.01;100032.34;5061810;28;20119;-84
2022/01/03 02:27:13;;;;;;;2.60;0.90;;;;;;;9.66;77.51;100054.28;5065710;28;20126;-85
2022/01/03 02:29:43;;;;;;;6.00;1.10;;;;;;;9.69;77.42;100014.25;5083443;28;20041;-85
2022/01/03 02:32:42;;;;;;;5.43;1.33;;;;;;;9.52;78.37;100024.44;5047444;28;20048;-85
2022/01/03 02:35:10;;;;;;;5.10;0.60;;;;;;;9.69;77.63;100009.81;5015553;28;20468;-84
2022/01/03 02:37:38;;;;;;;9.90;3.03;;;;;;;9.71;78.19;100012.34;5053825;28;20060;-84
2022/01/03 02:40:06;;;;;;;10.10;2.22;;;;;;;9.73;78.20;100018.38;5048382;28;20141;-84
2022/01/03 02:42:33;;;;;;;12.40;1.80;;;;;;;9.74;78.67;100012.06;5037355;28;20067;-85
2022/01/03 02:45:07;;;;;;;4.72;1.00;;;;;;;9.72;78.27;100017.53;5063135;28;20099;-85
2022/01/03 02:47:34;;;;;;;3.83;0.85;;;;;;;9.78;78.62;100003.75;5035584;28;20044;-84
2022/01/03 02:50:02;;;;;;;2.80;0.90;;;;;;;9.80;78.74;100030.16;5030825;28;20496;-85
2022/01/03 02:52:29;;;;;;;8.32;1.70;;;;;;;9.80;78.88;100024.84;5049122;28;20068;-84
2022/01/03 02:59:13;;;;;;;6.50;2.30;;;;;;;9.72;79.20;100020.19;5026280;28;20379;-85
2022/01/03 03:01:44;;;;;;;6.32;2.20;;;;;;;9.77;79.36;100078.16;5048705;28;20043;-85
2022/01/03 03:04:14;;;;;;;10.50;2.45;;;;;;;9.76;79.31;100066.66;5015244;28;20051;-85
2022/01/03 03:06:41;;;;;;;4.10;1.23;;;;;;;9.77;78.89;100025.94;5050076;28;20491;-84
2022/01/03 03:09:08;;;;;;;8.85;0.98;;;;;;;9.82;77.41;100035.31;5038679;28;20048;-85
2022/01/03 03:11:36;;;;;;;2.72;0.80;;;;;;;9.70;77.73;100013.31;5036575;28;20125;-85
2022/01/03 03:14:06;;;;;;;2.22;0.60;;;;;;;9.67;77.72;100025.00;5052104;28;20109;-85
2022/01/03 03:16:34;;;;;;;5.05;0.52;;;;;;;9.68;78.02;100031.16;5053019;28;20380;-85
2022/01/03 03:19:01;;;;;;;3.75;1.15;;;;;;;9.68;78.32;100039.09;5035020;28;20395;-85
2022/01/03 03:21:30;;;;;;;4.32;0.73;;;;;;;9.70;78.31;100053.09;5071688;28;20608;-85
2022/01/03 03:23:58;;;;;;;5.38;1.50;;;;;;;9.71;78.57;100029.09;5058240;28;20044;-85
2022/01/03 03:26:25;;;;;;;4.55;1.17;;;;;;;9.73;78.71;100098.75;5043720;28;20048;-85
2022/01/03 03:28:52;;;;;;;8.23;1.83;;;;;;;9.72;78.79;100081.16;5083924;28;20068;-84
2022/01/03 03:31:20;;;;;;;6.78;1.35;;;;;;;9.73;78.86;100043.06;5064939;28;20049;-85
2022/01/03 03:33:47;;;;;;;5.80;0.85;;;;;;;9.74;78.39;100031.50;5075910;28;20049;-85
2022/01/03 03:36:15;;;;;;;5.82;1.10;;;;;;;9.74;78.84;100051.84;5043041;28;20052;-85
2022/01/03 03:38:42;;;;;;;3.05;0.70;;;;;;;9.74;78.50;100047.41;5048401;28;20043;-85
2022/01/03 03:41:15;;;;;;;3.17;0.70;;;;;;;9.72;78.44;100054.66;5064248;28;20072;-85
2022/01/03 03:43:49;;;;;;;3.28;1.23;;;;;;;9.73;78.78;100047.53;5019787;28;20574;-85
2022/01/03 03:46:16;;;;;;;4.03;1.10;;;;;;;9.74;78.79;100049.19;5048963;28;20120;-85
2022/01/03 03:48:43;;;;;;;5.53;1.15;;;;;;;9.73;78.77;100043.06;5032029;28;20106;-86
2022/01/03 03:51:15;;;;;;;4.35;1.17;;;;;;;9.73;78.65;100050.19;5054224;28;20127;-85
2022/01/03 03:53:44;;;;;;;6.10;1.60;;;;;;;9.73;78.90;100047.53;5077481;28;20402;-85
2022/01/03 03:56:12;;;;;;;2.20;1.40;;;;;;;9.72;78.92;100044.03;5031014;28;20558;-84
2022/01/03 03:58:39;;;;;;;4.40;1.30;;;;;;;9.72;78.93;100037.91;5048140;28;20485;-85
2022/01/03 04:01:06;;;;;;;4.55;1.52;;;;;;;9.72;79.12;100038.75;5077958;28;20047;-85
2022/01/03 04:03:40;;;;;;;5.25;1.55;;;;;;;9.71;78.90;100039.69;5023694;28;20048;-85
2022/01/03 04:06:08;;;;;;;4.68;1.38;;;;;;;9.70;78.96;100032.72;5078807;28;20068;-85
2022/01/03 04:08:36;;;;;;;8.00;2.10;;;;;;;9.70;78.85;100032.72;5046649;28;20063;-85
2022/01/03 04:11:05;;;;;;;14.68;5.70;;;;;;;9.69;79.02;100031.03;5052047;28;20048;-85
2022/01/03 04:13:32;;;;;;;46.45;17.67;;;;;;;9.70;78.87;100037.19;5064634;28;20036;-85
2022/01/03 04:16:00;;;;;;;46.75;21.10;;;;;;;9.71;79.07;100033.56;5030293;28;20508;-85
2022/01/03 04:18:28;;;;;;;24.67;11.13;;;;;;;9.70;79.20;100029.22;5027652;28;20041;-85
2022/01/03 04:20:55;;;;;;;14.55;5.65;;;;;;;9.69;79.01;100033.69;5082209;28;20053;-86
2022/01/03 04:23:23;;;;;;;9.93;3.05;;;;;;;9.69;79.14;100031.03;5063089;28;20044;-85
2022/01/03 04:25:53;;;;;;;8.98;1.60;;;;;;;9.69;79.17;100025.75;5058799;28;20052;-85
2022/01/03 04:28:20;;;;;;;7.63;4.20;;;;;;;9.69;79.11;100014.25;5036279;28;20064;-85
2022/01/03 04:30:47;;;;;;;16.50;8.20;;;;;;;9.69;79.12;100017.78;5061844;28;20049;-85
2022/01/03 04:33:14;;;;;;;15.63;10.55;;;;;;;9.67;79.12;100019.72;5081018;28;20044;-85
2022/01/03 04:35:41;;;;;;;16.35;9.25;;;;;;;9.68;79.29;100018.72;5037897;28;20044;-85
2022/01/03 04:38:13;;;;;;;10.18;5.18;;;;;;;9.63;79.19;100010.31;5060285;28;20047;-85
2022/01/03 04:40:40;;;;;;;7.68;4.63;;;;;;;9.65;79.27;100011.03;5058921;28;20407;-85
2022/01/03 04:43:07;;;;;;;10.50;3.80;;;;;;;9.66;79.44;100011.88;5052238;28;20053;-85
2022/01/03 04:45:34;;;;;;;10.30;4.47;;;;;;;9.64;79.39;100009.38;5081882;28;20036;-85
2022/01/03 04:48:01;;;;;;;9.85;3.17;;;;;;;9.65;79.36;99999.59;5048004;28;20128;-85
2022/01/03 04:50:28;;;;;;;15.45;5.05;;;;;;;9.65;79.09;100007.56;5054160;28;20446;-85
2022/01/03 04:52:55;;;;;;;23.05;7.80;;;;;;;9.65;79.30;100004.91;5049594;28;20429;-85
2022/01/03 04:55:22;;;;;;;36.53;11.70;;;;;;;9.64;79.29;100008.50;5071826;28;20072;-85
2022/01/03 04:57:50;;;;;;;11.52;3.40;;;;;;;9.64;79.31;100011.16;5047105;28;20045;-85
2022/01/03 05:00:17;;;;;;;8.65;3.30;;;;;;;9.63;79.23;100005.00;5065176;28;20058;-85
2022/01/03 05:02:45;;;;;;;8.68;2.55;;;;;;;9.64;79.20;100000.53;5079508;28;20491;-85
2022/01/03 05:05:13;;;;;;;13.75;5.28;;;;;;;9.63;79.22;99998.88;5039348;28;20048;-84
2022/01/03 05:07:40;;;;;;;15.18;5.20;;;;;;;9.63;79.27;99993.56;5037694;28;20060;-85
2022/01/03 05:10:10;;;;;;;13.63;4.43;;;;;;;9.63;79.38;99996.22;5014332;28;20702;-85
2022/01/03 05:12:37;;;;;;;15.82;4.40;;;;;;;9.63;79.41;99991.75;5046593;28;20044;-85
2022/01/03 05:15:59;;;;;;;9.63;2.97;;;;;;;9.50;79.42;99983.13;5030082;28;20056;-85
2022/01/03 05:18:27;;;;;;;13.57;4.13;;;;;;;9.60;79.51;99983.22;5009501;28;20058;-85
2022/01/03 05:20:55;;;;;;;8.55;3.60;;;;;;;9.61;79.65;99972.47;5067591;28;20052;-85
2022/01/03 05:23:23;;;;;;;11.38;2.85;;;;;;;9.63;79.47;99980.31;5065776;28;20396;-85
2022/01/03 05:25:50;;;;;;;14.75;2.70;;;;;;;9.63;79.64;99977.66;5027000;28;20377;-85
2022/01/03 05:28:17;;;;;;;11.32;3.03;;;;;;;9.67;79.86;99976.47;5031871;28;20044;-85
2022/01/03 05:30:44;;;;;;;12.35;2.70;;;;;;;9.67;79.92;99979.09;5050396;28;20082;-85
2022/01/03 05:33:11;;;;;;;12.20;2.88;;;;;;;9.72;80.08;99971.63;5084835;28;20057;-86
2022/01/03 05:35:39;;;;;;;12.80;2.30;;;;;;;9.73;79.73;99967.97;5079631;28;20564;-86
2022/01/03 05:38:06;;;;;;;15.75;2.78;;;;;;;9.72;79.91;99959.19;5051581;28;20454;-85
2022/01/03 05:40:33;;;;;;;16.85;3.13;;;;;;;9.73;79.88;99963.50;5034851;28;20078;-85
2022/01/03 05:43:00;;;;;;;11.63;2.38;;;;;;;9.74;79.94;99948.44;5042422;28;20041;-86
2022/01/03 05:45:27;;;;;;;12.65;2.10;;;;;;;9.76;79.77;99963.25;5070162;28;20532;-85
2022/01/03 05:47:55;;;;;;;14.98;2.20;;;;;;;9.78;79.85;99955.19;5050674;28;20114;-86
2022/01/03 05:50:22;;;;;;;13.75;2.70;;;;;;;9.77;79.97;99949.03;5077953;28;20058;-85
2022/01/03 05:52:50;;;;;;;12.82;2.20;;;;;;;9.77;79.85;99946.38;5034015;28;20054;-85
2022/01/03 05:55:19;;;;;;;14.10;2.42;;;;;;;9.78;79.77;99960.47;5085540;28;20052;-85
2022/01/03 05:57:46;;;;;;;14.48;2.53;;;;;;;9.77;80.01;99970.25;5022090;28;20506;-85
2022/01/03 06:00:20;;;;;;;12.43;2.00;;;;;;;9.80;79.74;99970.97;5035061;28;20075;-85
2022/01/03 06:02:47;;;;;;;17.58;2.10;;;;;;;9.81;79.62;99970.84;5036694;28;20487;-86
2022/01/03 06:05:32;;;;;;;9.40;2.15;;;;;;;9.81;79.84;99980.59;5044104;28;20090;-84
2022/01/03 06:07:59;;;;;;;12.60;2.03;;;;;;;9.80;79.83;99977.13;4994151;28;20051;-85
2022/01/03 06:10:31;;;;;;;7.00;1.35;;;;;;;9.81;79.91;99984.09;5059024;28;20044;-86
2022/01/03 06:12:57;;;;;;;14.25;2.25;;;;;;;9.82;79.61;99990.22;5039522;28;20041;-86
2022/01/03 06:15:26;;;;;;;11.25;2.17;;;;;;;9.82;79.53;99982.28;5065211;28;20049;-86
2022/01/03 06:17:53;;;;;;;12.43;2.20;;;;;;;9.81;79.88;100000.00;5032055;28;20050;-86
2022/01/03 06:20:22;;;;;;;17.13;2.45;;;;;;;9.82;79.69;99999.06;5054445;28;20037;-86
2022/01/03 06:22:49;;;;;;;12.32;2.00;;;;;;;9.83;79.60;99992.75;5049833;28;20047;-86
2022/01/03 06:25:16;;;;;;;14.38;2.28;;;;;;;9.77;79.85;99995.94;5047119;28;20614;-85
2022/01/03 06:27:43;;;;;;;18.80;1.95;;;;;;;9.82;79.74;99995.53;5052149;28;20498;-85
2022/01/03 06:30:12;;;;;;;10.55;2.08;;;;;;;9.82;79.80;100001.69;5058104;28;20058;-85
2022/01/03 06:32:42;;;;;;;9.10;1.85;;;;;;;9.82;79.90;99992.88;5043876;28;20054;-86
2022/01/03 06:35:09;;;;;;;16.20;3.15;;;;;;;9.82;79.71;99995.53;5046814;28;20044;-85
2022/01/03 06:38:28;;;;;;;9.75;1.77;;;;;;;9.69;79.76;99996.56;5049412;28;20045;-85
2022/01/03 06:40:55;;;;;;;16.23;2.20;;;;;;;9.80;79.76;100000.97;5006101;28;20487;-85
2022/01/03 06:43:22;;;;;;;17.48;3.42;;;;;;;9.82;79.66;100000.84;5084488;28;20369;-89
2022/01/03 06:45:49;;;;;;;8.25;2.60;;;;;;;9.86;79.75;99995.16;5053189;28;20047;-89
2022/01/03 06:48:16;;;;;;;12.07;1.80;;;;;;;9.83;79.71;99995.41;5058934;28;20044;-91
2022/01/03 06:50:43;;;;;;;16.85;2.40;;;;;;;9.82;79.81;99998.19;5061060;28;20051;-89
2022/01/03 06:53:10;;;;;;;20.17;4.00;;;;;;;9.82;79.70;100008.78;5050501;28;20402;-89
2022/01/03 06:55:39;;;;;;;11.15;2.40;;;;;;;9.82;79.74;100006.16;5066134;28;20040;-90
2022/01/03 06:58:06;;;;;;;10.90;1.92;;;;;;;9.83;79.83;100008.69;5017784;28;20040;-89
2022/01/03 07:00:33;;;;;;;14.57;2.50;;;;;;;9.84;79.94;100018.31;5065451;28;20606;-89
2022/01/03 07:03:00;;;;;;;9.75;2.20;;;;;;;9.84;79.68;100009.50;5028376;28;20131;-90
2022/01/03 07:05:27;;;;;;;8.80;2.28;;;;;;;9.87;79.65;100009.25;5086046;28;20048;-89
2022/01/03 07:07:54;;;;;;;12.18;2.78;;;;;;;9.84;79.52;99998.91;5053002;28;20503;-90
2022/01/03 07:10:21;;;;;;;12.65;2.60;;;;;;;9.86;79.56;100004.94;5048990;28;20048;-90
2022/01/03 07:12:53;;;;;;;13.40;2.70;;;;;;;9.82;79.48;100003.50;5048713;28;20045;-88
2022/01/03 07:21:05;;;;;;;17.90;2.38;;;;;;;9.81;79.50;100015.91;5017438;28;20472;-89
2022/01/03 07:23:58;;;;;;;9.57;2.50;;;;;;;9.69;79.64;100011.63;5038045;28;20051;-89
2022/01/03 07:30:55;;;;;;;10.57;3.00;;;;;;;9.73;79.64;100011.25;5059148;28;20029;-89
2022/01/03 07:33:22;;;;;;;11.48;2.40;;;;;;;9.75;79.74;100006.66;5081965;28;20565;-88
2022/01/03 07:35:48;;;;;;;14.15;2.70;;;;;;;9.76;79.62;100010.97;5062843;28;20051;-88
2022/01/03 07:38:15;;;;;;;9.23;2.67;;;;;;;9.79;79.70;100012.53;5028642;28;20051;-88
2022/01/03 07:40:43;;;;;;;10.85;2.30;;;;;;;9.80;79.70;100013.41;5090835;28;20048;-88
2022/01/03 07:43:10;;;;;;;18.05;3.60;;;;;;;9.81;79.60;100012.44;5068921;28;20129;-89
2022/01/03 07:45:36;;;;;;;10.55;2.47;;;;;;;9.79;79.53;100020.50;5065639;28;20441;-88
2022/01/03 07:48:03;;;;;;;17.25;3.35;;;;;;;9.82;79.49;100016.75;5048790;28;20059;-84
2022/01/03 07:50:30;;;;;;;16.40;3.75;;;;;;;9.80;79.74;100010.75;5051976;28;20044;-88
2022/01/03 07:53:00;;;;;;;18.90;3.55;;;;;;;9.81;79.64;100007.13;5075485;28;20483;-89
2022/01/03 07:55:27;;;;;;;22.55;3.80;;;;;;;9.83;79.73;100013.16;5036991;28;20040;-89
2022/01/03 07:58:25;;;;;;;15.63;2.92;;;;;;;9.67;79.79;100014.41;5051154;28;20475;-89
2022/01/03 08:00:52;;;;;;;14.60;2.75;;;;;;;9.80;79.94;100008.94;4999413;28;20127;-90
2022/01/03 08:03:19;;;;;;;21.25;3.65;;;;;;;9.81;79.86;100007.13;5047243;28;20410;-88
2022/01/03 08:06:04;;;;;;;16.98;3.83;;;;;;;9.80;79.98;100003.63;5000740;28;20395;-89
2022/01/03 08:08:31;;;;;;;12.70;2.85;;;;;;;9.81;80.12;99999.16;5031074;28;20090;-89
2022/01/03 08:10:58;;;;;;;18.70;3.53;;;;;;;9.82;79.92;100001.69;5061396;28;20037;-89
2022/01/03 08:13:24;;;;;;;11.63;2.58;;;;;;;9.82;80.18;100000.84;5041760;28;20049;-89
2022/01/03 08:15:51;;;;;;;12.93;2.65;;;;;;;9.82;80.13;100008.78;5061994;28;20599;-89
2022/01/03 08:18:18;;;;;;;17.05;2.80;;;;;;;9.82;80.37;100011.44;5059039;28;20102;-86
2022/01/03 08:20:45;;;;;;;13.88;3.08;;;;;;;9.81;80.36;100013.25;5046825;28;20466;-89
2022/01/03 08:23:11;;;;;;;11.63;3.17;;;;;;;9.81;80.43;100007.97;5042645;28;20044;-89
2022/01/03 08:25:38;;;;;;;16.17;2.70;;;;;;;9.82;80.19;100017.63;5065986;28;20055;-89
2022/01/03 08:28:07;;;;;;;18.23;3.70;;;;;;;9.81;80.45;100007.97;5033072;28;20040;-89
2022/01/03 08:30:36;;;;;;;12.05;3.08;;;;;;;9.82;80.58;100012.31;5055102;28;20089;-91
2022/01/03 08:37:07;;;;;;;16.65;2.80;;;;;;;9.78;80.74;100024.13;5039476;28;20043;-91
2022/01/03 08:39:34;;;;;;;18.55;2.45;;;;;;;9.82;80.33;100016.75;5050176;28;20040;-91
2022/01/03 08:42:01;;;;;;;18.85;2.55;;;;;;;9.81;80.65;100028.34;5032904;28;20040;-90
2022/01/03 08:49:03;;;;;;;9.20;1.90;;;;;;;9.86;80.29;100016.38;5056305;28;20024;-89
2022/01/03 08:51:31;;;;;;;11.85;1.90;;;;;;;9.81;80.41;100020.38;5034368;28;20056;-90
2022/01/03 08:53:57;;;;;;;7.68;1.98;;;;;;;9.83;80.40;100018.44;5042833;28;20037;-88
2022/01/03 08:56:25;;;;;;;10.30;1.83;;;;;;;9.81;80.62;100012.44;5050994;28;20045;-89
2022/01/03 08:58:52;;;;;;;7.88;1.77;;;;;;;9.82;80.42;100016.75;5074951;28;20483;-87
2022/01/03 09:01:19;;;;;;;9.63;2.25;;;;;;;9.86;80.47;100004.94;5061587;28;20123;-89
2022/01/03 09:03:50;;;;;;;13.02;2.97;;;;;;;9.86;80.56;99999.63;5042833;28;20051;-90
2022/01/03 09:06:19;;;;;;;12.55;3.25;;;;;;;9.81;80.61;100001.81;5019722;28;20199;-91
2022/01/03 09:08:47;;;;;;;15.40;3.78;;;;;;;9.82;80.69;100001.69;5053000;28;20045;-89
2022/01/03 09:11:16;;;;;;;11.20;2.45;;;;;;;9.86;80.62;99999.63;5075053;28;20119;-88
2022/01/03 09:13:42;;;;;;;19.80;2.72;;;;;;;9.85;80.71;99992.66;5062584;28;20135;-89
2022/01/03 09:16:09;;;;;;;16.38;4.10;;;;;;;9.84;80.98;99994.44;5012034;28;20722;-86
2022/01/03 09:18:37;;;;;;;13.65;2.72;;;;;;;9.89;80.95;99986.94;5033043;28;20098;-89
2022/01/03 09:21:05;;;;;;;16.30;3.03;;;;;;;9.88;80.90;99989.75;5030380;28;20381;-89
2022/01/03 09:23:36;;;;;;;16.35;2.75;;;;;;;9.88;80.89;99979.13;5028937;28;20062;-86
2022/01/03 09:28:49;;;;;;;16.60;2.70;;;;;;;9.90;80.86;99987.81;5045338;28;20537;-88
2022/01/03 09:31:18;;;;;;;13.68;2.20;;;;;;;9.88;81.11;99982.63;5036870;28;20049;-88
2022/01/03 09:33:44;;;;;;;18.38;2.47;;;;;;;9.93;81.05;99977.78;5042866;28;20060;-88
2022/01/03 09:36:15;;;;;;;18.30;2.53;;;;;;;9.93;81.16;99983.06;5023415;28;20074;-88
2022/01/03 09:38:42;;;;;;;17.35;3.05;;;;;;;9.92;81.16;99978.75;5046303;28;20058;-89
2022/01/03 09:41:11;;;;;;;8.60;2.03;;;;;;;9.93;81.12;99971.63;5041683;28;20102;-89
2022/01/03 09:43:48;;;;;;;14.30;3.22;;;;;;;9.86;81.06;99976.59;5045774;28;20049;-90
2022/01/03 09:50:45;;;;;;;12.13;2.22;;;;;;;9.89;81.39;99972.84;5048337;28;20024;-90
2022/01/03 09:53:12;;;;;;;14.98;3.00;;;;;;;9.98;82.56;99969.44;5061120;28;20063;-88
2022/01/03 09:55:41;;;;;;;18.35;2.75;;;;;;;10.02;81.63;99970.84;5047499;28;20040;-89
2022/01/03 09:58:10;;;;;;;17.30;2.15;;;;;;;10.04;81.34;99976.88;5050588;28;20044;-89
2022/01/03 10:00:37;;;;;;;20.55;3.05;;;;;;;10.06;81.42;99980.25;5023587;28;20373;-88
2022/01/03 10:07:40;;;;;;;19.80;2.88;;;;;;;9.96;81.17;99974.03;5042273;28;20127;-89
2022/01/03 10:10:09;;;;;;;12.25;2.67;;;;;;;10.00;81.43;99972.81;5046276;28;20049;-89
2022/01/03 10:12:36;;;;;;;18.90;2.60;;;;;;;10.03;81.12;99959.28;5046563;28;20040;-88
2022/01/03 10:15:05;;;;;;;17.38;3.03;;;;;;;10.03;81.26;99959.28;5053237;28;20036;-88
2022/01/03 10:17:39;;;;;;;17.50;2.75;;;;;;;10.02;81.18;99960.22;5042534;28;20041;-89
2022/01/03 10:20:10;;;;;;;16.70;2.70;;;;;;;10.15;80.87;99957.38;5030916;28;20060;-89
2022/01/03 10:22:42;;;;;;;13.25;2.50;;;;;;;10.05;80.83;99959.13;5061323;28;20677;-90
2022/01/03 10:25:24;;;;;;;20.73;3.28;;;;;;;10.02;80.77;99954.91;5022659;28;20060;-88
2022/01/03 10:28:41;;;;;;;22.75;3.53;;;;;;;9.95;81.05;99951.97;5043486;28;20044;-87
2022/01/03 10:31:16;;;;;;;17.67;2.70;;;;;;;10.02;80.70;99968.19;5029100;28;20056;-86
2022/01/03 10:39:16;;;;;;;19.15;2.90;;;;;;;9.89;81.17;99973.69;4941475;28;20179;-87
2022/01/03 10:41:44;;;;;;;17.45;3.20;;;;;;;10.04;81.09;99960.09;4951323;28;20058;-90
2022/01/03 10:44:29;;;;;;;14.05;2.58;;;;;;;9.94;80.99;99958.22;5065295;28;20061;-92
2022/01/03 10:46:56;;;;;;;16.17;2.97;;;;;;;10.06;80.77;99947.56;5087117;28;20119;-86
2022/01/03 10:49:25;;;;;;;10.50;1.90;;;;;;;10.05;80.95;99949.38;5050302;28;20059;-89
2022/01/03 10:51:52;;;;;;;13.60;2.33;;;;;;;10.08;80.79;99948.28;5065554;28;20815;-87
2022/01/03 10:54:19;;;;;;;17.88;3.53;;;;;;;10.11;80.87;99946.19;5046574;28;20498;-91
2022/01/03 10:56:48;;;;;;;15.38;2.20;;;;;;;10.09;80.90;99955.25;5027396;28;20045;-89
2022/01/03 11:03:50;;;;;;;17.90;4.35;;;;;;;10.03;81.03;99939.88;4991416;28;20405;-91
2022/01/03 11:10:47;;;;;;;11.43;3.33;;;;;;;10.03;80.91;99939.88;4998793;28;20491;-94
2022/01/03 11:13:19;;;;;;;19.48;2.58;;;;;;;10.06;80.73;99934.28;5028932;28;20055;-90
2022/01/03 11:15:53;;;;;;;23.55;3.35;;;;;;;10.04;80.66;99929.09;5001868;28;20132;-90
2022/01/03 11:18:21;;;;;;;18.45;2.70;;;;;;;10.09;80.71;99923.41;5007995;28;20052;-93
2022/01/03 11:21:00;;;;;;;23.25;3.97;;;;;;;10.11;80.41;99926.78;5010437;28;20626;-89
2022/01/03 11:23:31;;;;;;;16.75;2.70;;;;;;;10.10;80.62;99911.81;5011005;28;20041;-89
2022/01/03 11:26:04;;;;;;;15.80;2.40;;;;;;;10.02;80.61;99920.44;4992903;28;20045;-88
2022/01/03 11:28:33;;;;;;;21.48;2.80;;;;;;;10.14;80.11;99908.78;5005817;28;20069;-94
2022/01/03 11:31:00;;;;;;;12.95;2.47;;;;;;;10.11;80.46;99911.69;4990316;28;20567;-92
2022/01/03 11:38:01;;;;;;;10.90;2.55;;;;;;;10.06;80.63;99905.94;5004398;28;20120;-89
2022/01/03 11:40:28;;;;;;;26.50;2.92;;;;;;;10.08;80.74;99895.22;4996196;28;20199;-91
2022/01/03 11:42:55;;;;;;;18.05;2.78;;;;;;;10.11;80.89;99895.78;5013059;28;20042;-90
2022/01/03 11:45:22;;;;;;;15.77;2.70;;;;;;;10.12;80.71;99891.31;4997803;28;20049;-90
2022/01/03 11:47:50;;;;;;;15.50;2.17;;;;;;;10.11;80.51;99881.69;5016306;28;20132;-92
2022/01/03 11:50:20;;;;;;;19.25;3.10;;;;;;;10.10;80.37;99874.69;5011767;28;20067;-95
2022/01/03 11:52:47;;;;;;;16.08;2.10;;;;;;;10.11;80.85;99868.41;4957073;28;20067;-92
2022/01/03 12:05:45;;;;;;;16.00;2.80;;;;;;;10.09;80.25;99844.66;4955806;28;20045;-89
2022/01/03 12:08:23;;;;;;;11.82;2.47;;;;;;;10.06;79.83;99855.53;5004078;28;20045;-90
2022/01/03 12:10:51;;;;;;;20.50;3.55;;;;;;;10.16;80.04;99839.66;5054186;28;20117;-90
2022/01/03 12:13:20;;;;;;;12.30;2.28;;;;;;;10.20;79.65;99838.41;5015886;28;20127;-89
2022/01/03 12:16:03;;;;;;;23.77;3.72;;;;;;;10.09;79.62;99835.88;5016090;28;20053;-88
2022/01/03 12:18:31;;;;;;;21.67;4.43;;;;;;;10.16;79.93;99829.88;4996984;28;20392;-89
2022/01/03 12:20:58;;;;;;;17.05;3.40;;;;;;;10.20;79.85;99833.97;5031241;28;20475;-89
2022/01/03 12:23:44;;;;;;;20.92;4.10;;;;;;;10.11;79.78;99820.66;5031316;28;20068;-89
2022/01/03 12:26:10;;;;;;;7.45;2.70;;;;;;;10.24;79.60;99820.44;5028317;28;20045;-90
2022/01/03 12:33:14;;;;;;;17.00;2.50;;;;;;;10.17;79.58;99818.28;5045667;28;20035;-90
2022/01/03 12:40:21;;;;;;;13.95;3.13;;;;;;;10.15;79.34;99804.34;5039681;28;20029;-91
2022/01/03 12:42:51;;;;;;;12.00;2.83;;;;;;;10.19;79.82;99800.44;5052739;28;20109;-91
2022/01/03 12:45:33;;;;;;;17.17;3.35;;;;;;;10.12;79.72;99788.66;5063226;28;20040;-92
2022/01/03 12:48:15;;;;;;;14.70;3.30;;;;;;;10.13;79.75;99785.06;5023824;28;20481;-92
2022/01/03 12:50:52;;;;;;;15.13;2.90;;;;;;;10.19;79.66;99778.38;5020847;28;20100;-92
2022/01/03 12:53:28;;;;;;;27.88;3.20;;;;;;;10.15;79.64;99783.13;5007926;28;20053;-90
2022/01/03 12:56:00;;;;;;;14.23;2.35;;;;;;;10.18;79.89;99772.22;5048353;28;20047;-90
2022/01/03 13:03:20;;;;;;;11.45;2.33;;;;;;;10.06;80.23;99762.69;5021941;28;20040;-94
2022/01/03 13:10:30;;;;;;;21.17;3.08;;;;;;;10.16;80.15;99749.47;5027047;28;20102;-92
2022/01/03 13:13:00;;;;;;;12.77;2.92;;;;;;;10.18;79.92;99747.50;5011796;28;20104;-88